Weather at Narita International Airport

Public forecast

Using degrees Celsius for public forecast. Weather courtesy of forecast.io.

Current aviation weather report (METAR) for Narita International Airport

Retrieved 2021/07/29 01:00 UTC (13 minutes ago):

RJAA 290100Z 19008KT 150V230 9999 FEW015 SCT020 BKN/// 29/24 Q1003 NOSIG RMK 1CU015 4CU020 A2962

Aviation forecast (TAF) for Narita International Airport

Retrieved 2021-07-29 00:30 UTC (43 minutes ago):

TAF TAF RJAA 282305Z 2900/3006 20010KT 9999 FEW015 BKN030 TEMPO 2903/2906 4000 -TSRA BR FEW015 FEW020CB BKN030 TEMPO 3000/3006 4000 -TSRA BR FEW015 FEW020CB BKN030